Time;durP1;ratioP1;P1;durP2;ratioP2;P2;SDS_P1;SDS_P2;PMS_P1;PMS_P2;Temp;Humidity;BMP_temperature;BMP_pressure;BME280_temperature;BME280_humidity;BME280_pressure;Samples;Min_cycle;Max_cycle;Signal;HPM_P1;HPM_P2
2023/08/16 00:01:02;;;;;;;;;;;;;;;28.86;42.71;97007.50;4204007;28;5746;-75
2023/08/16 00:03:05;;;;;;;;;;;;;;;28.83;42.73;97014.38;4202420;28;5688;-75
2023/08/16 00:05:09;;;;;;;;;;;;;;;28.81;42.56;97013.88;4201914;28;5774;-74
2023/08/16 00:07:12;;;;;;;;;;;;;;;28.80;42.60;97014.97;4218123;28;5661;-75
2023/08/16 00:09:16;;;;;;;;;;;;;;;28.78;42.76;97019.94;4202026;28;5848;-75
2023/08/16 00:11:21;;;;;;;;;;;;;;;28.78;42.58;97025.38;4194182;28;5719;-75
2023/08/16 00:13:24;;;;;;;;;;;;;;;28.77;42.50;97014.78;4209287;28;5894;-75
2023/08/16 00:15:27;;;;;;;;;;;;;;;28.76;42.63;97019.41;4203476;28;5699;-74
2023/08/16 00:17:30;;;;;;;;;;;;;;;28.74;42.84;97020.81;4209985;28;5825;-75
2023/08/16 00:19:33;;;;;;;;;;;;;;;28.72;42.72;97018.41;4217912;28;5908;-75
2023/08/16 00:21:35;;;;;;;;;;;;;;;28.70;43.14;97015.19;4218866;28;5868;-75
2023/08/16 00:23:38;;;;;;;;;;;;;;;28.66;43.15;97014.22;4215599;28;6389;-74
2023/08/16 00:25:41;;;;;;;;;;;;;;;28.63;43.56;97009.34;4213378;28;5676;-75
2023/08/16 00:27:45;;;;;;;;;;;;;;;28.61;43.42;97022.47;4215035;28;5691;-75
2023/08/16 00:29:48;;;;;;;;;;;;;;;28.60;43.60;97020.84;4206416;28;5668;-74
2023/08/16 00:31:51;;;;;;;;;;;;;;;28.58;43.78;97014.91;4205194;28;5691;-74
2023/08/16 00:33:54;;;;;;;;;;;;;;;28.59;43.70;97024.69;4210646;28;5685;-75
2023/08/16 00:35:56;;;;;;;;;;;;;;;28.59;43.95;97020.03;4207073;28;5698;-75
2023/08/16 00:37:59;;;;;;;;;;;;;;;28.60;43.68;97020.84;4201919;28;5700;-75
2023/08/16 00:40:01;;;;;;;;;;;;;;;28.60;43.92;97015.41;4201586;28;5698;-74
2023/08/16 00:42:05;;;;;;;;;;;;;;;28.61;43.95;97012.38;4208187;28;5759;-74
2023/08/16 00:44:09;;;;;;;;;;;;;;;28.61;44.06;97009.66;4211108;28;5770;-75
2023/08/16 00:46:13;;;;;;;;;;;;;;;28.63;44.03;97014.78;4201291;28;7528;-75
2023/08/16 00:48:17;;;;;;;;;;;;;;;28.62;44.30;97002.31;4201612;28;6388;-75
2023/08/16 00:50:23;;;;;;;;;;;;;;;28.64;44.25;97010.97;4201797;28;5851;-74
2023/08/16 00:52:25;;;;;;;;;;;;;;;28.62;44.30;97011.28;4212483;28;5668;-74
2023/08/16 00:54:29;;;;;;;;;;;;;;;28.62;44.37;97014.00;4216659;28;5657;-75
2023/08/16 00:56:32;;;;;;;;;;;;;;;28.63;44.52;97012.06;4202967;28;7780;-75
2023/08/16 00:58:35;;;;;;;;;;;;;;;28.63;44.64;97009.34;4207098;28;5082;-74
2023/08/16 01:00:40;;;;;;;;;;;;;;;28.64;44.64;97016.41;4201401;28;5741;-75
2023/08/16 01:02:43;;;;;;;;;;;;;;;28.61;44.73;97012.38;4201313;28;5754;-75
2023/08/16 01:04:47;;;;;;;;;;;;;;;28.61;44.74;97006.94;4201319;28;5706;-75
2023/08/16 01:06:53;;;;;;;;;;;;;;;28.61;44.82;97012.38;4214072;28;5689;-75
2023/08/16 01:08:56;;;;;;;;;;;;;;;28.60;44.75;97015.41;4218109;28;5755;-74
2023/08/16 01:11:04;;;;;;;;;;;;;;;28.59;44.81;97011.88;4211674;28;5686;-74
2023/08/16 01:13:11;;;;;;;;;;;;;;;28.59;44.74;97013.81;4201243;28;5715;-75
2023/08/16 01:15:21;;;;;;;;;;;;;;;28.57;44.74;97002.41;4217569;28;7691;-75
2023/08/16 01:17:27;;;;;;;;;;;;;;;28.56;44.62;97003.53;4194531;28;5686;-75
2023/08/16 01:19:33;;;;;;;;;;;;;;;28.55;44.74;97007.38;4215629;28;7698;-75
2023/08/16 01:21:43;;;;;;;;;;;;;;;28.54;44.62;97001.13;4200943;28;5797;-74
2023/08/16 01:23:58;;;;;;;;;;;;;;;28.51;44.68;96995.47;4200930;28;5699;-74
2023/08/16 01:26:07;;;;;;;;;;;;;;;28.49;44.58;96992.25;4200504;28;5932;-74
2023/08/16 01:28:12;;;;;;;;;;;;;;;28.47;44.52;97002.63;4200982;28;5751;-74
2023/08/16 01:30:15;;;;;;;;;;;;;;;28.46;44.54;97004.53;4200820;28;5699;-74
2023/08/16 01:32:18;;;;;;;;;;;;;;;28.45;44.60;97007.56;4201131;28;5669;-75
2023/08/16 01:34:20;;;;;;;;;;;;;;;28.45;44.55;97008.38;4209231;28;5677;-74
2023/08/16 01:36:23;;;;;;;;;;;;;;;28.40;44.59;97001.09;4200115;28;5688;-74
2023/08/16 01:38:26;;;;;;;;;;;;;;;28.44;44.53;97011.41;4200901;28;5714;-75
2023/08/16 01:40:35;;;;;;;;;;;;;;;28.41;44.65;97002.72;4200425;28;5874;-75
2023/08/16 01:42:44;;;;;;;;;;;;;;;28.40;44.65;96995.66;4200213;28;6364;-74
2023/08/16 01:44:52;;;;;;;;;;;;;;;28.39;44.67;97002.22;4199665;28;5710;-75
2023/08/16 01:46:56;;;;;;;;;;;;;;;28.36;44.64;96994.69;4214385;28;5714;-75
2023/08/16 01:49:00;;;;;;;;;;;;;;;28.36;44.89;97004.75;4203338;28;5692;-74
2023/08/16 01:51:02;;;;;;;;;;;;;;;28.36;44.48;97004.75;4206984;28;5676;-75
2023/08/16 01:53:05;;;;;;;;;;;;;;;28.36;44.80;97002.03;4210478;28;5683;-75
2023/08/16 01:55:09;;;;;;;;;;;;;;;28.34;44.80;96998.81;4200539;28;5727;-75
2023/08/16 01:57:12;;;;;;;;;;;;;;;28.32;44.55;97001.03;4216778;28;5745;-75
2023/08/16 01:59:15;;;;;;;;;;;;;;;28.31;44.72;97002.91;4204059;28;5818;-75
2023/08/16 02:01:19;;;;;;;;;;;;;;;28.30;44.88;97004.03;4217318;28;5780;-75
2023/08/16 02:03:22;;;;;;;;;;;;;;;28.29;44.72;96998.91;4201337;28;5766;-75
2023/08/16 02:05:25;;;;;;;;;;;;;;;28.27;44.78;96999.19;4216978;28;5681;-75
2023/08/16 02:07:28;;;;;;;;;;;;;;;28.26;44.72;96994.03;4207374;28;5786;-75
2023/08/16 02:09:33;;;;;;;;;;;;;;;28.24;44.75;96999.78;4200724;28;5862;-75
2023/08/16 02:11:35;;;;;;;;;;;;;;;28.23;44.74;97003.59;4200253;28;5790;-75
2023/08/16 02:13:38;;;;;;;;;;;;;;;28.20;44.58;97001.50;4208499;28;5699;-74
2023/08/16 02:15:41;;;;;;;;;;;;;;;28.21;44.77;97000.38;4206888;28;5695;-75
2023/08/16 02:17:45;;;;;;;;;;;;;;;28.18;44.78;96995.53;4174931;28;5798;-74
2023/08/16 02:19:47;;;;;;;;;;;;;;;28.19;44.72;96999.06;4179337;28;5787;-75
2023/08/16 02:21:50;;;;;;;;;;;;;;;28.18;44.57;96997.44;4183813;28;5842;-75
2023/08/16 02:23:52;;;;;;;;;;;;;;;28.19;44.77;96996.34;4183593;28;5695;-75
2023/08/16 02:25:55;;;;;;;;;;;;;;;28.17;44.78;96991.22;4169758;28;5144;-74
2023/08/16 02:27:57;;;;;;;;;;;;;;;28.16;44.79;96988.78;4167282;28;5854;-75
2023/08/16 02:30:00;;;;;;;;;;;;;;;28.14;45.06;96989.09;4167090;28;5726;-75
2023/08/16 02:32:04;;;;;;;;;;;;;;;28.13;44.69;96998.38;4167275;28;5822;-75
2023/08/16 02:34:08;;;;;;;;;;;;;;;28.10;44.76;96996.25;4167236;28;5746;-74
2023/08/16 02:36:11;;;;;;;;;;;;;;;28.08;44.87;96988.38;4166759;28;5726;-75
2023/08/16 02:38:14;;;;;;;;;;;;;;;28.07;44.88;96996.84;4175242;28;5742;-74
2023/08/16 02:40:17;;;;;;;;;;;;;;;28.07;44.91;96989.50;4166906;28;6210;-75
2023/08/16 02:42:20;;;;;;;;;;;;;;;28.06;45.00;96987.88;4183103;28;5868;-74
2023/08/16 02:44:23;;;;;;;;;;;;;;;28.03;45.08;96985.78;4175347;28;5748;-74
2023/08/16 02:46:25;;;;;;;;;;;;;;;28.03;45.20;96990.41;4168269;28;5742;-75
2023/08/16 02:48:28;;;;;;;;;;;;;;;28.00;45.35;96980.94;4175052;28;5831;-74
2023/08/16 02:50:33;;;;;;;;;;;;;;;27.98;45.50;96985.06;4179870;28;5728;-75
2023/08/16 02:52:36;;;;;;;;;;;;;;;27.97;45.38;96986.16;4161800;28;5941;-75
2023/08/16 02:54:39;;;;;;;;;;;;;;;27.97;45.63;96983.44;4183478;28;5931;-75
2023/08/16 02:56:42;;;;;;;;;;;;;;;27.94;45.53;96982.13;4171393;28;5734;-75
2023/08/16 02:58:45;;;;;;;;;;;;;;;27.92;46.03;96983.53;4178928;28;6454;-75
2023/08/16 03:00:50;;;;;;;;;;;;;;;27.85;45.94;96984.72;4170862;28;5866;-75
2023/08/16 03:02:53;;;;;;;;;;;;;;;27.82;46.10;96979.91;4166858;28;5805;-74
2023/08/16 03:04:56;;;;;;;;;;;;;;;27.79;46.13;96985.13;4164116;28;5089;-74
2023/08/16 03:07:00;;;;;;;;;;;;;;;27.76;46.20;96980.31;4174611;28;5733;-74
2023/08/16 03:09:03;;;;;;;;;;;;;;;27.76;46.14;96981.13;4173074;28;5715;-74
2023/08/16 03:11:06;;;;;;;;;;;;;;;27.78;45.90;96978.09;4175971;28;5848;-75
2023/08/16 03:13:09;;;;;;;;;;;;;;;27.77;46.03;96984.63;4166836;28;5726;-75
2023/08/16 03:15:12;;;;;;;;;;;;;;;27.77;45.93;96982.72;4167060;28;5854;-74
2023/08/16 03:17:15;;;;;;;;;;;;;;;27.76;46.26;96981.13;4199566;28;5129;-75
2023/08/16 03:19:17;;;;;;;;;;;;;;;27.76;46.33;96989.25;4216209;28;5657;-74
2023/08/16 03:21:23;;;;;;;;;;;;;;;27.74;46.24;96991.44;4199842;28;5683;-75
2023/08/16 03:23:27;;;;;;;;;;;;;;;27.74;46.11;96986.00;4199944;28;5815;-74
2023/08/16 03:25:31;;;;;;;;;;;;;;;27.73;46.30;96981.69;4194039;28;5968;-74
2023/08/16 03:27:33;;;;;;;;;;;;;;;27.71;46.16;96989.34;4204863;28;5874;-74
2023/08/16 03:29:36;;;;;;;;;;;;;;;27.70;46.21;96987.72;4219818;28;5869;-74
2023/08/16 03:31:39;;;;;;;;;;;;;;;27.70;46.05;96990.44;4208310;28;5695;-74
2023/08/16 03:33:42;;;;;;;;;;;;;;;27.70;46.19;96982.28;4202696;28;5815;-75
2023/08/16 03:35:44;;;;;;;;;;;;;;;27.69;46.13;96986.13;4202200;28;5860;-74
2023/08/16 03:37:47;;;;;;;;;;;;;;;27.69;46.24;96988.03;4211112;28;5675;-74
2023/08/16 03:39:52;;;;;;;;;;;;;;;27.67;46.40;96985.63;4202634;28;5815;-74
2023/08/16 03:41:54;;;;;;;;;;;;;;;27.68;46.19;96987.22;4216520;28;6479;-75
2023/08/16 03:43:56;;;;;;;;;;;;;;;27.68;46.42;96989.13;4210752;28;5676;-74
2023/08/16 03:45:59;;;;;;;;;;;;;;;27.68;46.28;96994.56;4219555;28;5832;-75
2023/08/16 03:48:02;;;;;;;;;;;;;;;27.67;46.35;96993.75;4212860;28;5730;-75
2023/08/16 03:50:06;;;;;;;;;;;;;;;27.67;46.19;97003.81;4202620;28;5820;-74
2023/08/16 03:52:09;;;;;;;;;;;;;;;27.68;46.33;97000.81;4209794;28;5781;-74
2023/08/16 03:54:12;;;;;;;;;;;;;;;27.67;46.46;97007.34;4206531;28;5904;-75
2023/08/16 03:56:16;;;;;;;;;;;;;;;27.66;46.47;97007.66;4189020;28;5823;-75
2023/08/16 04:54:33;;;;;;;;;;;;;;;26.38;52.23;97036.50;4201461;27;1516727;-81
2023/08/16 04:56:59;;;;;;;;;;;;;;;26.67;51.58;97036.44;4235098;22;5622;31
2023/08/16 04:59:01;;;;;;;;;;;;;;;26.89;51.35;97040.50;4179878;28;5843;-81
2023/08/16 05:01:04;;;;;;;;;;;;;;;27.04;51.01;97045.72;4170309;28;5823;-80
2023/08/16 05:03:07;;;;;;;;;;;;;;;27.16;50.92;97043.38;4175450;28;5761;-80
2023/08/16 05:05:10;;;;;;;;;;;;;;;27.24;50.82;97040.03;4182989;28;5814;-80
2023/08/16 05:07:14;;;;;;;;;;;;;;;27.32;50.56;97041.28;4189720;28;5728;-80
2023/08/16 05:09:17;;;;;;;;;;;;;;;27.40;50.43;97039.78;4182794;28;5746;-79
2023/08/16 05:11:21;;;;;;;;;;;;;;;27.44;50.31;97035.41;4186222;28;5758;-80
2023/08/16 05:13:24;;;;;;;;;;;;;;;27.50;50.18;97045.06;4179560;28;5769;-79
2023/08/16 05:15:27;;;;;;;;;;;;;;;27.53;50.06;97045.28;4192761;28;5733;-80
2023/08/16 05:17:30;;;;;;;;;;;;;;;27.59;50.04;97039.75;4184024;28;5825;-80
2023/08/16 05:19:32;;;;;;;;;;;;;;;27.61;49.95;97041.06;4178957;28;5728;-80
2023/08/16 05:21:36;;;;;;;;;;;;;;;27.62;50.06;97050.03;4183851;28;5717;-80
2023/08/16 05:23:39;;;;;;;;;;;;;;;27.64;49.77;97045.13;4184196;28;5877;-80
2023/08/16 05:25:41;;;;;;;;;;;;;;;27.65;49.95;97050.28;4175510;28;5791;-79
2023/08/16 05:27:46;;;;;;;;;;;;;;;27.67;49.96;97047.28;4178411;28;5749;-80
2023/08/16 05:29:49;;;;;;;;;;;;;;;27.69;49.74;97045.88;4176437;28;5738;-79
2023/08/16 05:31:51;;;;;;;;;;;;;;;27.71;49.96;97054.53;4173223;28;5156;-80
2023/08/16 05:33:54;;;;;;;;;;;;;;;27.71;50.00;97051.81;4167424;28;5869;-80
2023/08/16 05:35:58;;;;;;;;;;;;;;;27.72;49.87;97049.91;4178865;28;5797;-80
2023/08/16 05:38:01;;;;;;;;;;;;;;;27.72;50.14;97047.97;4168697;28;5766;-80
2023/08/16 05:40:05;;;;;;;;;;;;;;;27.68;50.36;97049.69;4180197;28;5830;-79
2023/08/16 05:42:07;;;;;;;;;;;;;;;27.69;50.65;97047.78;4178292;28;5857;-80
2023/08/16 05:44:11;;;;;;;;;;;;;;;27.69;50.43;97051.31;4177028;28;5724;-80
2023/08/16 05:46:16;;;;;;;;;;;;;;;27.69;50.47;97054.03;4165447;28;5758;-80
2023/08/16 05:48:19;;;;;;;;;;;;;;;27.72;50.50;97049.91;4169425;28;5812;-80
2023/08/16 05:50:22;;;;;;;;;;;;;;;27.74;50.76;97067.50;4169586;28;5774;-81
2023/08/16 05:52:25;;;;;;;;;;;;;;;27.75;50.64;97074.56;4170465;28;5888;-81
2023/08/16 05:54:27;;;;;;;;;;;;;;;27.75;50.81;97066.44;4165327;28;5913;-81
2023/08/16 05:56:30;;;;;;;;;;;;;;;27.76;50.79;97065.31;4151832;28;5837;-81
2023/08/16 05:58:33;;;;;;;;;;;;;;;27.76;50.87;97061.78;4164283;28;5716;-81
2023/08/16 06:00:38;;;;;;;;;;;;;;;27.77;50.94;97068.84;4171446;28;5665;-80
2023/08/16 06:02:41;;;;;;;;;;;;;;;27.78;50.90;97071.25;4166669;28;5676;-80
2023/08/16 06:04:44;;;;;;;;;;;;;;;27.82;50.94;97072.25;4168366;28;5772;-81
2023/08/16 06:06:46;;;;;;;;;;;;;;;27.82;50.84;97074.97;4168220;28;6359;-80
2023/08/16 06:08:48;;;;;;;;;;;;;;;27.83;50.71;97065.72;4168706;28;5764;-80
2023/08/16 06:10:52;;;;;;;;;;;;;;;27.84;50.60;97071.97;4167585;28;5795;-81
2023/08/16 06:12:54;;;;;;;;;;;;;;;27.88;50.59;97074.91;4167189;28;5717;-80
2023/08/16 06:14:57;;;;;;;;;;;;;;;27.91;50.39;97075.13;4163021;28;5821;-81
2023/08/16 06:17:01;;;;;;;;;;;;;;;27.95;50.47;97070.69;4170422;28;5770;-81
2023/08/16 06:19:03;;;;;;;;;;;;;;;27.97;50.47;97073.09;4166794;28;5685;-82
2023/08/16 06:21:06;;;;;;;;;;;;;;;27.99;50.42;97074.44;4166799;28;5779;-81
2023/08/16 06:23:10;;;;;;;;;;;;;;;28.01;50.41;97068.69;4168130;28;5661;-81
2023/08/16 06:25:13;;;;;;;;;;;;;;;28.03;50.37;97069.22;4165830;28;5799;-81
2023/08/16 06:27:15;;;;;;;;;;;;;;;28.04;50.23;97073.53;4169524;28;5676;-83
2023/08/16 06:29:19;;;;;;;;;;;;;;;28.05;50.19;97075.13;4161967;28;5841;-81
2023/08/16 06:31:22;;;;;;;;;;;;;;;28.06;49.96;97074.84;4176832;28;5741;-81
2023/08/16 06:33:26;;;;;;;;;;;;;;;28.09;49.96;97070.75;4163168;28;5649;-81
2023/08/16 06:35:29;;;;;;;;;;;;;;;28.08;50.02;97067.19;4162495;28;5646;-81
2023/08/16 06:37:32;;;;;;;;;;;;;;;28.13;49.79;97074.47;4162364;28;5823;-81
2023/08/16 06:39:35;;;;;;;;;;;;;;;28.15;49.55;97066.81;4186549;28;5782;-81
2023/08/16 06:41:38;;;;;;;;;;;;;;;28.14;49.62;97078.78;4161443;28;5834;-81
2023/08/16 06:43:41;;;;;;;;;;;;;;;28.13;49.41;97072.56;4168069;28;5649;-81
2023/08/16 06:45:44;;;;;;;;;;;;;;;28.14;49.53;97073.34;4169165;28;5661;-80
2023/08/16 06:47:47;;;;;;;;;;;;;;;28.14;49.49;97074.16;4162870;28;5914;-81
2023/08/16 06:49:52;;;;;;;;;;;;;;;28.17;49.39;97069.22;4165754;28;5724;-81
2023/08/16 06:51:54;;;;;;;;;;;;;;;28.16;49.21;97082.00;4172970;28;6187;-81
2023/08/16 06:53:57;;;;;;;;;;;;;;;28.16;49.21;97087.44;4165376;28;5720;-81
2023/08/16 06:56:01;;;;;;;;;;;;;;;28.15;49.08;97080.41;4161519;28;5912;-81
2023/08/16 06:58:05;;;;;;;;;;;;;;;28.13;48.88;97086.13;4178447;28;5753;-81
2023/08/16 07:00:09;;;;;;;;;;;;;;;28.15;48.74;97085.84;4172953;28;5661;-81
2023/08/16 07:02:13;;;;;;;;;;;;;;;28.16;48.77;97090.16;4155999;28;5745;-81
2023/08/16 07:04:16;;;;;;;;;;;;;;;28.16;48.33;97082.00;4173845;28;5766;-81
2023/08/16 07:06:21;;;;;;;;;;;;;;;28.15;48.26;97080.41;4185139;28;5658;-81
2023/08/16 07:08:24;;;;;;;;;;;;;;;28.13;48.21;97079.91;4162538;28;5860;-81
2023/08/16 07:10:26;;;;;;;;;;;;;;;28.14;48.09;97078.78;4172536;28;5657;-81
2023/08/16 07:12:29;;;;;;;;;;;;;;;28.14;48.08;97085.03;4169281;28;7300;-82
2023/08/16 07:14:32;;;;;;;;;;;;;;;28.16;48.19;97082.00;4159574;28;5665;-67
2023/08/16 07:16:36;;;;;;;;;;;;;;;28.17;48.09;97080.09;4177672;28;5742;-63
2023/08/16 07:18:39;;;;;;;;;;;;;;;28.15;47.95;97069.53;4171851;28;5800;-63
2023/08/16 07:20:42;;;;;;;;;;;;;;;28.16;47.77;97071.13;4151753;28;5669;-63
2023/08/16 07:22:46;;;;;;;;;;;;;;;28.15;48.02;97088.56;4182944;28;6465;-63
2023/08/16 07:24:50;;;;;;;;;;;;;;;28.16;48.04;97082.00;4178814;28;5771;-62
2023/08/16 07:26:53;;;;;;;;;;;;;;;28.17;47.95;97080.09;4173805;28;5657;-65
2023/08/16 07:28:56;;;;;;;;;;;;;;;28.16;48.07;97086.66;4163275;28;5654;-65
2023/08/16 07:30:59;;;;;;;;;;;;;;;28.16;48.03;97083.94;4160450;28;6546;-62
2023/08/16 07:33:02;;;;;;;;;;;;;;;28.14;48.00;97082.31;4167347;28;5860;-66
2023/08/16 07:35:06;;;;;;;;;;;;;;;28.16;48.03;97082.00;4168773;28;5672;-63
2023/08/16 07:37:09;;;;;;;;;;;;;;;28.16;47.93;97076.56;4170007;28;5650;-64
2023/08/16 07:39:13;;;;;;;;;;;;;;;28.17;48.01;97078.19;4162399;28;5661;-63
2023/08/16 07:41:16;;;;;;;;;;;;;;;28.16;47.96;97084.72;4165154;28;5673;-64
2023/08/16 07:43:19;;;;;;;;;;;;;;;28.16;48.04;97079.28;4159690;28;5762;-64
2023/08/16 07:45:22;;;;;;;;;;;;;;;28.15;48.05;97074.97;4151515;28;5910;-64
2023/08/16 07:47:25;;;;;;;;;;;;;;;28.14;48.09;97076.06;4151917;28;5709;-64
2023/08/16 07:49:28;;;;;;;;;;;;;;;28.13;47.94;97064.41;4167208;28;5083;-64
2023/08/16 07:51:31;;;;;;;;;;;;;;;28.14;48.23;97076.06;4184763;28;5651;-64
2023/08/16 07:53:34;;;;;;;;;;;;;;;28.13;48.18;97074.47;4160625;28;5871;-64
2023/08/16 07:55:38;;;;;;;;;;;;;;;28.12;48.20;97072.84;4166522;28;5725;-64
2023/08/16 07:57:41;;;;;;;;;;;;;;;28.12;48.25;97072.84;4170340;28;7691;-64
2023/08/16 07:59:44;;;;;;;;;;;;;;;28.12;48.36;97075.56;4180508;28;5859;-64
2023/08/16 08:01:47;;;;;;;;;;;;;;;28.09;48.38;97076.97;4151409;28;5709;-64
2023/08/16 08:03:51;;;;;;;;;;;;;;;28.10;48.49;97084.03;4151342;28;5728;-64
2023/08/16 08:05:54;;;;;;;;;;;;;;;28.07;48.45;97081.09;4167681;28;5736;-64
2023/08/16 08:07:57;;;;;;;;;;;;;;;28.05;48.58;97070.50;4151452;28;5724;-64
2023/08/16 08:10:00;;;;;;;;;;;;;;;28.06;48.48;97077.56;4151288;28;5815;-64
2023/08/16 08:12:05;;;;;;;;;;;;;;;28.06;48.49;97068.59;4176280;28;5635;-64
2023/08/16 08:14:08;;;;;;;;;;;;;;;28.06;48.55;97071.31;4162079;28;5646;-64
2023/08/16 08:16:11;;;;;;;;;;;;;;;28.06;48.58;97074.03;4164674;28;5630;-64
2023/08/16 08:18:14;;;;;;;;;;;;;;;28.06;48.69;97071.31;4183855;28;5722;-64
2023/08/16 08:20:17;;;;;;;;;;;;;;;28.06;48.80;97072.13;4184045;28;5753;-64
2023/08/16 08:22:20;;;;;;;;;;;;;;;28.06;48.85;97072.13;4154609;28;6437;-64
2023/08/16 08:24:23;;;;;;;;;;;;;;;28.07;48.73;97064.78;4165065;28;5694;-64
2023/08/16 08:26:27;;;;;;;;;;;;;;;28.06;48.73;97068.59;4176564;28;5661;-64
2023/08/16 08:28:31;;;;;;;;;;;;;;;28.06;48.73;97063.16;4167301;28;5666;-64
2023/08/16 08:30:34;;;;;;;;;;;;;;;28.07;48.79;97068.28;4168023;28;5654;-64
2023/08/16 08:32:36;;;;;;;;;;;;;;;28.08;48.80;97074.53;4165878;28;6515;-64
2023/08/16 08:34:40;;;;;;;;;;;;;;;28.09;48.76;97076.19;4151261;28;5854;-64
2023/08/16 08:36:43;;;;;;;;;;;;;;;28.10;48.81;97075.88;4151226;28;7882;-64
2023/08/16 08:38:46;;;;;;;;;;;;;;;28.10;48.66;97077.78;4154939;28;5202;-64
2023/08/16 08:40:56;;;;;;;;;;;;;;;28.11;48.66;97079.41;4165201;28;5762;-64
2023/08/16 08:43:01;;;;;;;;;;;;;;;28.11;48.62;97082.91;4162430;28;5639;-63
2023/08/16 08:45:06;;;;;;;;;;;;;;;28.10;48.64;97083.22;4162640;28;5713;-64
2023/08/16 08:47:10;;;;;;;;;;;;;;;28.10;48.71;97086.75;4180818;28;5862;-64
2023/08/16 08:49:20;;;;;;;;;;;;;;;28.10;48.53;97088.66;4183956;28;5763;-64
2023/08/16 08:51:28;;;;;;;;;;;;;;;28.10;48.67;97080.50;4153070;28;5720;-64
2023/08/16 08:53:31;;;;;;;;;;;;;;;28.11;48.66;97082.13;4167288;28;5846;-64
2023/08/16 08:55:37;;;;;;;;;;;;;;;28.10;48.74;97083.22;4151332;28;5824;-64
2023/08/16 08:57:40;;;;;;;;;;;;;;;28.12;48.55;97086.44;4164820;28;5761;-64
2023/08/16 08:59:49;;;;;;;;;;;;;;;28.14;48.61;97084.22;4167165;28;5643;-64
2023/08/16 09:01:53;;;;;;;;;;;;;;;28.16;48.55;97086.66;4151011;28;5871;-64
2023/08/16 09:04:00;;;;;;;;;;;;;;;28.14;48.44;97082.31;4157282;28;6245;-64
2023/08/16 09:06:04;;;;;;;;;;;;;;;28.17;48.52;97089.06;4175283;28;5798;-64
2023/08/16 09:08:09;;;;;;;;;;;;;;;28.17;48.56;97090.97;4177062;28;5642;-64
2023/08/16 09:10:13;;;;;;;;;;;;;;;28.17;48.58;97090.97;4155768;28;5754;-64
2023/08/16 09:12:18;;;;;;;;;;;;;;;28.19;48.68;97096.91;4173110;28;5662;-64
2023/08/16 09:14:22;;;;;;;;;;;;;;;28.21;48.63;97095.53;4173491;28;6391;-64
2023/08/16 09:16:25;;;;;;;;;;;;;;;28.21;48.50;97090.09;4152353;28;5819;-64
2023/08/16 09:18:29;;;;;;;;;;;;;;;28.20;48.62;97098.53;4165926;28;5839;-64
2023/08/16 09:20:31;;;;;;;;;;;;;;;28.19;48.49;97097.72;4166753;28;5724;-64
2023/08/16 09:22:35;;;;;;;;;;;;;;;28.18;48.33;97090.66;4150861;28;5736;-64
2023/08/16 09:24:38;;;;;;;;;;;;;;;28.19;48.34;97095.00;4150697;28;5728;-64
2023/08/16 09:26:41;;;;;;;;;;;;;;;28.21;48.40;97098.25;4152920;28;5813;-64
2023/08/16 09:28:44;;;;;;;;;;;;;;;28.21;48.31;97100.97;4163894;28;5716;-64
2023/08/16 09:30:47;;;;;;;;;;;;;;;28.22;48.17;97097.13;4155203;28;5799;-64
2023/08/16 09:32:53;;;;;;;;;;;;;;;28.22;48.26;97099.84;4167491;28;5636;-64
2023/08/16 09:34:58;;;;;;;;;;;;;;;28.23;48.06;97103.38;4153647;28;6463;-64
2023/08/16 09:37:05;;;;;;;;;;;;;;;28.22;47.85;97097.13;4153908;28;5754;-64
2023/08/16 09:39:09;;;;;;;;;;;;;;;28.23;48.20;97098.75;4154486;28;5716;-64
2023/08/16 09:41:16;;;;;;;;;;;;;;;28.23;47.70;97098.75;4153996;28;5728;-64
2023/08/16 09:43:20;;;;;;;;;;;;;;;28.26;47.43;97103.56;4153606;28;5732;-64
2023/08/16 09:45:32;;;;;;;;;;;;;;;28.26;47.21;97092.69;4172134;28;5796;-63
2023/08/16 09:47:42;;;;;;;;;;;;;;;28.27;47.00;97096.22;4170353;28;5729;-63
2023/08/16 09:50:08;;;;;;;;;;;;;;;28.26;46.64;97092.69;4177868;28;5635;-64
2023/08/16 09:52:12;;;;;;;;;;;;;;;28.25;46.62;97091.09;4159007;28;5716;-64
2023/08/16 09:54:17;;;;;;;;;;;;;;;28.29;46.65;97089.41;4153466;28;5736;-64
2023/08/16 09:56:22;;;;;;;;;;;;;;;28.32;45.90;97088.03;4165909;28;5751;-64
2023/08/16 09:58:40;;;;;;;;;;;;;;;28.30;45.96;97082.88;4165255;28;5100;-64
2023/08/16 10:00:42;;;;;;;;;;;;;;;28.32;45.93;97079.88;4166343;28;6391;-63
2023/08/16 10:02:48;;;;;;;;;;;;;;;28.33;45.68;97074.13;4165088;28;5672;-64
2023/08/16 10:04:55;;;;;;;;;;;;;;;28.35;45.46;97074.63;4163386;28;6438;-63
2023/08/16 10:07:04;;;;;;;;;;;;;;;28.38;45.14;97082.19;4165681;28;5785;-63
2023/08/16 10:09:12;;;;;;;;;;;;;;;28.40;45.28;97077.25;4166024;28;5677;-64
2023/08/16 10:11:15;;;;;;;;;;;;;;;28.43;45.12;97075.84;4171068;28;6473;-64
2023/08/16 10:13:19;;;;;;;;;;;;;;;28.45;45.18;97078.28;4158535;28;5661;-64
2023/08/16 10:15:22;;;;;;;;;;;;;;;28.45;44.90;97067.41;4165429;28;5751;-64
2023/08/16 10:17:28;;;;;;;;;;;;;;;28.46;44.70;97074.44;4167521;28;5661;-64
2023/08/16 10:19:33;;;;;;;;;;;;;;;28.46;44.77;97069.81;4163457;28;5635;-64
2023/08/16 10:21:42;;;;;;;;;;;;;;;28.49;44.72;97073.81;4152891;28;5152;-64
2023/08/16 10:23:48;;;;;;;;;;;;;;;28.51;44.76;97077.84;4165283;28;6366;-64
2023/08/16 10:25:53;;;;;;;;;;;;;;;28.50;44.35;97059.94;4165132;28;5922;-64
2023/08/16 10:27:56;;;;;;;;;;;;;;;28.52;44.53;97070.50;4157334;28;5702;-64
2023/08/16 10:30:02;;;;;;;;;;;;;;;28.54;44.50;97063.66;4159708;28;5466;-64
2023/08/16 10:32:12;;;;;;;;;;;;;;;28.53;44.25;97064.75;4164271;28;5772;-65
2023/08/16 10:34:16;;;;;;;;;;;;;;;28.56;44.50;97063.38;4164734;28;5716;-64
2023/08/16 10:36:19;;;;;;;;;;;;;;;28.58;44.33;97064.66;4164872;28;6386;-64
2023/08/16 10:38:22;;;;;;;;;;;;;;;28.60;44.23;97061.66;4165700;28;5115;-64
2023/08/16 10:40:26;;;;;;;;;;;;;;;28.60;44.17;97062.44;4173040;28;5713;-64
2023/08/16 10:42:29;;;;;;;;;;;;;;;28.63;43.97;97056.41;4176517;28;5673;-64
2023/08/16 10:44:33;;;;;;;;;;;;;;;28.65;44.10;97058.81;4176955;28;5674;-64
2023/08/16 10:46:37;;;;;;;;;;;;;;;28.66;43.92;97055.81;4169057;28;5808;-64
2023/08/16 10:48:41;;;;;;;;;;;;;;;28.68;43.94;97055.50;4153666;28;5701;-64
2023/08/16 10:50:44;;;;;;;;;;;;;;;28.70;43.89;97056.00;4159977;28;5828;-64
2023/08/16 10:52:47;;;;;;;;;;;;;;;28.71;43.57;97060.34;4167063;28;5852;-64
2023/08/16 10:54:54;;;;;;;;;;;;;;;28.71;43.81;97046.72;4153787;28;5819;-64
2023/08/16 10:57:03;;;;;;;;;;;;;;;28.74;43.76;97045.31;4153277;28;5799;-64
2023/08/16 10:59:06;;;;;;;;;;;;;;;28.77;43.87;97047.41;4140878;28;5763;-64
2023/08/16 11:01:09;;;;;;;;;;;;;;;28.78;43.75;97044.41;4150761;28;5708;-65
2023/08/16 11:03:19;;;;;;;;;;;;;;;28.80;43.66;97041.38;4162717;28;5713;-64
2023/08/16 11:05:24;;;;;;;;;;;;;;;28.83;43.55;97040.78;4168102;28;5656;-64
2023/08/16 11:07:28;;;;;;;;;;;;;;;28.83;43.31;97032.59;4182766;28;5850;-63
2023/08/16 11:09:31;;;;;;;;;;;;;;;28.83;43.34;97027.16;4166801;28;5765;-64
2023/08/16 11:11:35;;;;;;;;;;;;;;;28.83;42.59;97030.69;4158003;28;5821;-64
2023/08/16 11:13:40;;;;;;;;;;;;;;;28.83;42.95;97025.25;4157502;28;5769;-64
2023/08/16 11:15:43;;;;;;;;;;;;;;;28.86;42.72;97027.34;4150975;28;5844;-64
2023/08/16 11:17:46;;;;;;;;;;;;;;;28.86;42.36;97030.06;4150107;28;5984;-63
2023/08/16 11:20:12;;;;;;;;;;;;;;;28.90;42.70;97031.13;4153829;28;6484;-64
2023/08/16 11:22:15;;;;;;;;;;;;;;;28.91;42.32;97024.56;4168766;28;5761;-64
2023/08/16 11:24:20;;;;;;;;;;;;;;;28.92;42.11;97023.44;4150511;28;5728;-64
2023/08/16 11:26:23;;;;;;;;;;;;;;;28.94;42.12;97014.97;4150333;28;5837;-64
2023/08/16 11:28:26;;;;;;;;;;;;;;;28.95;41.95;97019.31;4157772;28;5736;-63
2023/08/16 11:30:30;;;;;;;;;;;;;;;28.95;41.61;97014.66;4166478;28;6478;-64
2023/08/16 11:32:35;;;;;;;;;;;;;;;28.97;41.18;97020.59;4167053;28;5797;-63
2023/08/16 11:34:38;;;;;;;;;;;;;;;28.96;40.84;97019.00;4150320;28;5833;-63
2023/08/16 11:36:41;;;;;;;;;;;;;;;28.99;40.66;97018.41;4158122;28;5958;-63
2023/08/16 11:38:45;;;;;;;;;;;;;;;29.01;39.79;97025.47;4150352;28;5819;-64
2023/08/16 11:40:48;;;;;;;;;;;;;;;29.06;39.43;97011.72;4160653;28;5095;-63
2023/08/16 11:42:50;;;;;;;;;;;;;;;29.11;39.01;97015.16;4177093;28;5845;-63
2023/08/16 11:44:53;;;;;;;;;;;;;;;29.15;38.90;97007.16;4163182;28;5879;-64
2023/08/16 11:46:58;;;;;;;;;;;;;;;29.19;38.88;97013.59;4154733;28;5736;-64
2023/08/16 11:49:01;;;;;;;;;;;;;;;29.21;38.56;97008.63;4154433;28;6517;-64
2023/08/16 11:51:04;;;;;;;;;;;;;;;29.24;38.58;96997.97;4153987;28;5916;-64